createdAt,value
2023-01-25T00:00:37.661Z,1012.82
2023-01-25T00:01:37.628Z,1012.78
2023-01-25T00:02:37.637Z,1012.77
2023-01-25T00:03:37.634Z,1012.77
2023-01-25T00:04:37.558Z,1012.73
2023-01-25T00:05:37.520Z,1012.73
2023-01-25T00:06:37.485Z,1012.74
2023-01-25T00:07:37.467Z,1012.72
2023-01-25T00:08:37.429Z,1012.72
2023-01-25T00:09:37.409Z,1012.73
2023-01-25T00:10:37.382Z,1012.73
2023-01-25T00:11:37.353Z,1012.66
2023-01-25T00:12:37.357Z,1012.68
2023-01-25T00:13:37.306Z,1012.73
2023-01-25T00:14:37.271Z,1012.73
2023-01-25T00:15:37.251Z,1012.70
2023-01-25T00:16:37.286Z,1012.74
2023-01-25T00:17:37.196Z,1012.72
2023-01-25T00:18:37.175Z,1012.71
2023-01-25T00:19:45.827Z,1012.68
2023-01-25T00:21:30.537Z,1012.71
2023-01-25T00:22:30.594Z,1012.69
2023-01-25T00:23:30.474Z,1012.68
2023-01-25T00:24:30.468Z,1012.67
2023-01-25T00:25:30.415Z,1012.72
2023-01-25T00:26:30.416Z,1012.68
2023-01-25T00:27:30.379Z,1012.68
2023-01-25T00:28:30.352Z,1012.68
2023-01-25T00:29:30.307Z,1012.71
2023-01-25T00:30:30.295Z,1012.69
2023-01-25T00:31:30.392Z,1012.70
2023-01-25T00:32:30.370Z,1012.72
2023-01-25T00:33:30.218Z,1012.71
2023-01-25T00:34:30.191Z,1012.71
2023-01-25T00:35:30.164Z,1012.71
2023-01-25T00:36:30.153Z,1012.73
2023-01-25T00:37:37.177Z,1012.72
2023-01-25T00:38:30.105Z,1012.74
2023-01-25T00:39:30.052Z,1012.71
2023-01-25T00:40:30.043Z,1012.71
2023-01-25T00:41:29.998Z,1012.70
2023-01-25T00:42:29.976Z,1012.71
2023-01-25T00:55:46.646Z,1012.55
2023-01-25T00:56:47.174Z,1012.53
2023-01-25T00:57:46.557Z,1012.55
2023-01-25T00:58:47.130Z,1012.57
2023-01-25T00:59:46.527Z,1012.54
2023-01-25T01:00:46.880Z,1012.54
2023-01-25T01:01:46.520Z,1012.55
2023-01-25T01:02:46.698Z,1012.51
2023-01-25T01:03:46.406Z,1012.52
2023-01-25T01:04:46.623Z,1012.53
2023-01-25T01:05:46.380Z,1012.55
2023-01-25T01:06:46.487Z,1012.58
2023-01-25T01:07:46.472Z,1012.49
2023-01-25T01:08:46.483Z,1012.48
2023-01-25T01:09:46.372Z,1012.50
2023-01-25T01:10:46.348Z,1012.46
2023-01-25T01:11:46.270Z,1012.45
2023-01-25T01:12:46.208Z,1012.47
2023-01-25T01:13:46.207Z,1012.48
2023-01-25T01:14:46.216Z,1012.48
2023-01-25T01:15:46.105Z,1012.50
2023-01-25T01:16:46.091Z,1012.44
2023-01-25T01:17:46.136Z,1012.43
2023-01-25T01:18:46.146Z,1012.39
2023-01-25T01:19:46.064Z,1012.43
2023-01-25T01:20:45.989Z,1012.44
2023-01-25T01:21:45.942Z,1012.48
2023-01-25T01:22:46.074Z,1012.48
2023-01-25T01:23:45.929Z,1012.45
2023-01-25T01:24:45.860Z,1012.49
2023-01-25T01:25:45.910Z,1012.44
2023-01-25T01:26:46.259Z,1012.42
2023-01-25T01:27:45.831Z,1012.41
2023-01-25T01:28:45.762Z,1012.40
2023-01-25T01:29:45.920Z,1012.42
2023-01-25T01:30:45.688Z,1012.41
2023-01-25T01:31:45.748Z,1012.44
2023-01-25T01:33:23.562Z,1012.47
2023-01-25T01:33:45.804Z,1012.40
2023-01-25T01:34:45.601Z,1012.43
2023-01-25T01:35:45.634Z,1012.40
2023-01-25T01:36:45.541Z,1012.39
2023-01-25T01:37:45.529Z,1012.38
2023-01-25T01:38:45.567Z,1012.41
2023-01-25T01:39:45.481Z,1012.45
2023-01-25T01:40:45.507Z,1012.40
2023-01-25T01:41:45.576Z,1012.39
2023-01-25T01:42:45.766Z,1012.40
2023-01-25T01:43:45.489Z,1012.41
2023-01-25T01:44:45.409Z,1012.39
2023-01-25T01:45:45.324Z,1012.36
2023-01-25T01:46:45.274Z,1012.35
2023-01-25T01:47:45.252Z,1012.36
2023-01-25T01:48:45.336Z,1012.33
2023-01-25T01:49:45.201Z,1012.32
2023-01-25T01:50:45.363Z,1012.28
2023-01-25T01:51:45.408Z,1012.27
2023-01-25T01:52:45.116Z,1012.27
2023-01-25T01:53:45.119Z,1012.28
2023-01-25T01:54:45.064Z,1012.27
2023-01-25T01:55:45.040Z,1012.25
2023-01-25T01:56:45.131Z,1012.26
2023-01-25T01:57:44.976Z,1012.24
2023-01-25T01:58:45.148Z,1012.30
2023-01-25T01:59:44.935Z,1012.27
2023-01-25T02:00:45.066Z,1012.28
2023-01-25T02:01:44.967Z,1012.26
2023-01-25T02:02:45.021Z,1012.27
2023-01-25T02:03:44.874Z,1012.24
2023-01-25T02:04:44.833Z,1012.28
2023-01-25T02:05:45.118Z,1012.24
2023-01-25T02:06:44.785Z,1012.28
2023-01-25T02:07:44.724Z,1012.23
2023-01-25T02:08:44.690Z,1012.26
2023-01-25T02:09:44.659Z,1012.25
2023-01-25T02:10:44.645Z,1012.26
2023-01-25T02:11:44.774Z,1012.23
2023-01-25T02:12:44.758Z,1012.24
2023-01-25T02:13:44.562Z,1012.23
2023-01-25T02:14:44.707Z,1012.23
2023-01-25T02:15:44.683Z,1012.22
2023-01-25T02:16:44.610Z,1012.22
2023-01-25T02:17:47.330Z,1012.24
2023-01-25T02:19:44.403Z,1012.24
2023-01-25T02:20:44.455Z,1012.21
2023-01-25T02:21:44.373Z,1012.17
2023-01-25T02:22:44.422Z,1012.17
2023-01-25T02:23:44.425Z,1012.18
2023-01-25T02:24:44.474Z,1012.14
2023-01-25T02:25:44.235Z,1012.11
2023-01-25T02:26:44.644Z,1012.06
2023-01-25T02:27:44.187Z,1012.07
2023-01-25T02:28:44.676Z,1012.09
2023-01-25T02:29:44.208Z,1012.12
2023-01-25T02:30:44.709Z,1012.14
2023-01-25T02:31:44.196Z,1012.11
2023-01-25T02:32:44.103Z,1012.13
2023-01-25T02:33:44.308Z,1012.11
2023-01-25T02:34:44.025Z,1012.08
2023-01-25T02:35:43.972Z,1012.08
2023-01-25T02:36:43.982Z,1012.06
2023-01-25T02:37:43.981Z,1012.07
2023-01-25T02:38:44.077Z,1012.03
2023-01-25T02:39:43.923Z,1012.08
2023-01-25T02:40:43.848Z,1012.04
2023-01-25T02:41:43.862Z,1011.98
2023-01-25T02:42:43.911Z,1012.02
2023-01-25T02:43:43.831Z,1012.07
2023-01-25T02:44:43.852Z,1012.06
2023-01-25T02:45:43.898Z,1012.07
2023-01-25T02:46:43.785Z,1012.08
2023-01-25T02:47:44.781Z,1012.12
2023-01-25T02:48:43.637Z,1012.13
2023-01-25T02:49:43.617Z,1012.11
2023-01-25T02:50:44.111Z,1012.12
2023-01-25T02:51:44.303Z,1012.13
2023-01-25T02:52:43.540Z,1012.09
2023-01-25T02:53:43.701Z,1012.11
2023-01-25T02:54:43.493Z,1012.11
2023-01-25T02:55:43.467Z,1012.10
2023-01-25T02:56:43.473Z,1012.11
2023-01-25T02:57:43.412Z,1012.08
2023-01-25T02:58:43.472Z,1012.07
2023-01-25T02:59:43.716Z,1012.08
2023-01-25T03:00:43.651Z,1012.09
2023-01-25T03:01:43.350Z,1012.07
2023-01-25T03:02:43.406Z,1012.04
2023-01-25T03:03:43.315Z,1012.06
2023-01-25T03:04:43.299Z,1012.02
2023-01-25T03:05:43.193Z,1011.99
2023-01-25T03:06:43.318Z,1012.00
2023-01-25T03:07:43.175Z,1011.97
2023-01-25T03:08:43.173Z,1011.95
2023-01-25T03:09:43.249Z,1011.91
2023-01-25T03:10:43.438Z,1011.96
2023-01-25T03:11:43.279Z,1011.95
2023-01-25T03:12:42.995Z,1011.96
2023-01-25T03:13:42.962Z,1011.93
2023-01-25T03:14:42.944Z,1011.95
2023-01-25T03:15:42.934Z,1011.91
2023-01-25T03:16:42.889Z,1011.90
2023-01-25T03:17:42.857Z,1011.90
2023-01-25T03:18:42.855Z,1011.84
2023-01-25T03:19:42.815Z,1011.84
2023-01-25T03:20:42.785Z,1011.82
2023-01-25T03:21:42.753Z,1011.82
2023-01-25T03:22:42.730Z,1011.81
2023-01-25T03:23:42.698Z,1011.79
2023-01-25T03:24:42.681Z,1011.81
2023-01-25T03:25:42.649Z,1011.82
2023-01-25T03:26:42.653Z,1011.83
2023-01-25T03:27:42.599Z,1011.82
2023-01-25T03:28:42.571Z,1011.88
2023-01-25T03:29:42.551Z,1011.88
2023-01-25T03:30:42.513Z,1011.89
2023-01-25T03:31:42.680Z,1011.85
2023-01-25T03:32:42.855Z,1011.86
2023-01-25T03:33:42.446Z,1011.82
2023-01-25T03:34:42.430Z,1011.84
2023-01-25T03:35:42.392Z,1011.83
2023-01-25T03:36:42.657Z,1011.76
2023-01-25T03:37:42.353Z,1011.79
2023-01-25T03:38:42.332Z,1011.76
2023-01-25T03:39:42.295Z,1011.78
2023-01-25T03:40:42.264Z,1011.78
2023-01-25T03:41:42.229Z,1011.80
2023-01-25T03:42:42.209Z,1011.82
2023-01-25T03:43:42.398Z,1011.81
2023-01-25T03:44:42.239Z,1011.81
2023-01-25T03:45:42.344Z,1011.77
2023-01-25T03:46:42.268Z,1011.78
2023-01-25T03:47:42.212Z,1011.79
2023-01-25T03:48:42.047Z,1011.73
2023-01-25T03:49:42.005Z,1011.74
2023-01-25T03:50:41.992Z,1011.72
2023-01-25T03:51:41.968Z,1011.71
2023-01-25T03:52:41.950Z,1011.70
2023-01-25T03:53:41.907Z,1011.71
2023-01-25T03:54:41.885Z,1011.70
2023-01-25T03:55:41.852Z,1011.70
2023-01-25T03:56:41.831Z,1011.69
2023-01-25T03:57:42.098Z,1011.69
2023-01-25T03:58:41.966Z,1011.69
2023-01-25T03:59:42.058Z,1011.69
2023-01-25T04:00:41.898Z,1011.66
2023-01-25T04:01:41.859Z,1011.71
2023-01-25T04:02:42.348Z,1011.71
2023-01-25T04:03:41.706Z,1011.68
2023-01-25T04:04:41.743Z,1011.68
2023-01-25T04:05:41.646Z,1011.69
2023-01-25T04:06:41.751Z,1011.68
2023-01-25T04:07:41.671Z,1011.67
2023-01-25T04:08:41.779Z,1011.66
2023-01-25T04:09:41.496Z,1011.67
2023-01-25T04:10:41.565Z,1011.67
2023-01-25T04:11:41.478Z,1011.67
2023-01-25T04:12:41.407Z,1011.69
2023-01-25T04:13:41.393Z,1011.66
2023-01-25T04:14:44.632Z,1011.64
2023-01-25T04:15:41.524Z,1011.67
2023-01-25T04:16:41.477Z,1011.66
2023-01-25T04:17:41.559Z,1011.63
2023-01-25T04:18:41.356Z,1011.64
2023-01-25T04:19:41.305Z,1011.62
2023-01-25T04:20:42.387Z,1011.60
2023-01-25T04:21:41.353Z,1011.58
2023-01-25T04:22:41.285Z,1011.61
2023-01-25T04:23:41.718Z,1011.61
2023-01-25T04:24:41.103Z,1011.63
2023-01-25T04:25:41.177Z,1011.60
2023-01-25T04:26:41.144Z,1011.60
2023-01-25T04:27:41.013Z,1011.57
2023-01-25T04:28:41.197Z,1011.55
2023-01-25T04:29:42.021Z,1011.54
2023-01-25T04:30:40.930Z,1011.55
2023-01-25T04:31:41.241Z,1011.49
2023-01-25T04:32:41.085Z,1011.51
2023-01-25T04:33:40.874Z,1011.52
2023-01-25T04:34:40.900Z,1011.55
2023-01-25T04:35:40.826Z,1011.47
2023-01-25T04:36:40.800Z,1011.51
2023-01-25T04:37:41.783Z,1011.47
2023-01-25T04:38:40.910Z,1011.48
2023-01-25T04:39:40.695Z,1011.51
2023-01-25T04:40:40.669Z,1011.49
2023-01-25T04:41:40.642Z,1011.45
2023-01-25T04:42:40.663Z,1011.49
2023-01-25T04:43:40.597Z,1011.47
2023-01-25T04:44:40.859Z,1011.48
2023-01-25T04:45:40.656Z,1011.51
2023-01-25T04:46:40.966Z,1011.51
2023-01-25T04:47:40.522Z,1011.48
2023-01-25T04:48:40.466Z,1011.47
2023-01-25T04:49:40.430Z,1011.50
2023-01-25T04:50:40.444Z,1011.53
2023-01-25T04:51:40.382Z,1011.48
2023-01-25T04:52:40.435Z,1011.48
2023-01-25T04:53:40.323Z,1011.48
2023-01-25T04:54:40.303Z,1011.43
2023-01-25T04:55:40.295Z,1011.39
2023-01-25T04:56:40.434Z,1011.42
2023-01-25T04:57:40.374Z,1011.38
2023-01-25T04:58:40.188Z,1011.37
2023-01-25T04:59:40.201Z,1011.32
2023-01-25T05:00:40.157Z,1011.33
2023-01-25T05:01:40.352Z,1011.37
2023-01-25T05:02:40.128Z,1011.34
2023-01-25T05:03:40.060Z,1011.29
2023-01-25T05:04:40.044Z,1011.30
2023-01-25T05:05:40.034Z,1011.25
2023-01-25T05:06:39.980Z,1011.25
2023-01-25T05:07:39.986Z,1011.24
2023-01-25T05:08:40.039Z,1011.24
2023-01-25T05:09:39.962Z,1011.23
2023-01-25T05:10:40.118Z,1011.23
2023-01-25T05:11:39.929Z,1011.22
2023-01-25T05:12:39.936Z,1011.20
2023-01-25T05:13:39.845Z,1011.23
2023-01-25T05:14:40.000Z,1011.17
2023-01-25T05:15:39.737Z,1011.14
2023-01-25T05:16:39.952Z,1011.08
2023-01-25T05:17:39.700Z,1011.08
2023-01-25T05:18:48.539Z,1011.04
2023-01-25T05:19:39.765Z,1011.08
2023-01-25T05:20:39.664Z,1011.03
2023-01-25T05:21:39.624Z,1011.04
2023-01-25T05:22:39.555Z,1011.03
2023-01-25T05:23:39.561Z,1011.01
2023-01-25T05:24:39.500Z,1011.02
2023-01-25T05:25:39.502Z,1010.99
2023-01-25T05:26:39.570Z,1010.99
2023-01-25T05:27:39.464Z,1010.98
2023-01-25T05:28:39.434Z,1010.95
2023-01-25T05:29:39.525Z,1010.94
2023-01-25T05:30:39.485Z,1010.96
2023-01-25T05:31:39.388Z,1010.91
2023-01-25T05:32:39.335Z,1010.85
2023-01-25T05:33:39.404Z,1010.90
2023-01-25T05:34:39.321Z,1010.84
2023-01-25T05:35:39.252Z,1010.85
2023-01-25T05:36:39.216Z,1010.88
2023-01-25T05:37:39.165Z,1010.92
2023-01-25T05:38:39.128Z,1010.86
2023-01-25T05:39:39.103Z,1010.90
2023-01-25T05:40:39.089Z,1010.87
2023-01-25T05:41:39.094Z,1010.85
2023-01-25T05:42:39.038Z,1010.86
2023-01-25T05:43:39.223Z,1010.88
2023-01-25T05:44:39.009Z,1010.90
2023-01-25T05:45:39.054Z,1010.88
2023-01-25T05:46:38.917Z,1010.88
2023-01-25T05:47:38.962Z,1010.92
2023-01-25T05:48:38.896Z,1010.91
2023-01-25T05:49:38.847Z,1010.87
2023-01-25T05:50:38.906Z,1010.85
2023-01-25T05:51:38.870Z,1010.88
2023-01-25T05:52:38.941Z,1010.86
2023-01-25T05:53:38.892Z,1010.84
2023-01-25T05:54:38.849Z,1010.87
2023-01-25T05:55:39.052Z,1010.89
2023-01-25T05:56:39.262Z,1010.92
2023-01-25T05:57:38.681Z,1010.93
2023-01-25T05:58:38.614Z,1010.93
2023-01-25T05:59:38.680Z,1010.92
2023-01-25T06:00:38.705Z,1010.90
2023-01-25T06:01:38.606Z,1010.91
2023-01-25T06:02:38.662Z,1010.94
2023-01-25T06:03:38.695Z,1010.90
2023-01-25T06:04:38.458Z,1010.90
2023-01-25T06:05:38.568Z,1010.90
2023-01-25T06:06:38.391Z,1010.87
2023-01-25T06:07:38.432Z,1010.86
2023-01-25T06:09:38.353Z,1010.85
2023-01-25T06:10:38.303Z,1010.86
2023-01-25T06:11:38.259Z,1010.88
2023-01-25T06:12:38.396Z,1010.87
2023-01-25T06:13:38.276Z,1010.87
2023-01-25T06:14:38.395Z,1010.92
2023-01-25T06:15:38.171Z,1010.91
2023-01-25T06:16:38.196Z,1010.94
2023-01-25T06:17:38.264Z,1010.96
2023-01-25T06:18:38.105Z,1010.93
2023-01-25T06:19:38.126Z,1010.98
2023-01-25T06:20:38.134Z,1010.98
2023-01-25T06:21:38.161Z,1010.99
2023-01-25T06:22:38.102Z,1010.96
2023-01-25T06:23:37.981Z,1010.94
2023-01-25T06:24:37.929Z,1010.94
2023-01-25T06:25:38.168Z,1010.93
2023-01-25T06:26:37.909Z,1010.91
2023-01-25T06:27:37.908Z,1010.88
2023-01-25T06:28:37.800Z,1010.84
2023-01-25T06:29:37.776Z,1010.85
2023-01-25T06:31:37.858Z,1010.82
2023-01-25T06:32:37.696Z,1010.77
2023-01-25T06:33:37.681Z,1010.80
2023-01-25T06:34:37.814Z,1010.79
2023-01-25T06:35:37.626Z,1010.79
2023-01-25T06:36:37.639Z,1010.80
2023-01-25T06:37:37.632Z,1010.80
2023-01-25T06:38:37.979Z,1010.84
2023-01-25T06:39:37.723Z,1010.85
2023-01-25T06:40:37.513Z,1010.78
2023-01-25T06:41:37.480Z,1010.82
2023-01-25T06:42:37.460Z,1010.81
2023-01-25T06:43:37.420Z,1010.82
2023-01-25T06:44:37.413Z,1010.82
2023-01-25T06:45:37.404Z,1010.78
2023-01-25T06:46:37.480Z,1010.82
2023-01-25T06:47:37.512Z,1010.83
2023-01-25T06:48:37.349Z,1010.81
2023-01-25T06:49:37.270Z,1010.86
2023-01-25T06:50:37.266Z,1010.84
2023-01-25T06:51:37.278Z,1010.85
2023-01-25T06:52:37.197Z,1010.88
2023-01-25T06:53:37.142Z,1010.80
2023-01-25T06:54:37.151Z,1010.84
2023-01-25T06:55:37.167Z,1010.88
2023-01-25T06:56:37.159Z,1010.83
2023-01-25T06:57:37.052Z,1010.79
2023-01-25T06:58:37.120Z,1010.76
2023-01-25T06:59:37.060Z,1010.76
2023-01-25T07:00:37.144Z,1010.77
2023-01-25T07:01:37.012Z,1010.75
2023-01-25T07:02:36.973Z,1010.78
2023-01-25T07:03:36.925Z,1010.76
2023-01-25T07:04:37.092Z,1010.75
2023-01-25T07:05:36.818Z,1010.76
2023-01-25T07:06:36.796Z,1010.78
2023-01-25T07:07:37.034Z,1010.77
2023-01-25T07:08:36.799Z,1010.79
2023-01-25T07:09:36.725Z,1010.74
2023-01-25T07:10:36.828Z,1010.79
2023-01-25T07:11:36.664Z,1010.79
2023-01-25T07:12:36.712Z,1010.79
2023-01-25T07:13:36.654Z,1010.80
2023-01-25T07:14:36.638Z,1010.80
2023-01-25T07:15:36.627Z,1010.79
2023-01-25T07:16:36.563Z,1010.83
2023-01-25T07:17:36.537Z,1010.80
2023-01-25T07:18:36.474Z,1010.78
2023-01-25T07:19:36.595Z,1010.79
2023-01-25T07:20:36.492Z,1010.83
2023-01-25T07:21:36.477Z,1010.85
2023-01-25T07:22:36.485Z,1010.81
2023-01-25T07:23:36.336Z,1010.79
2023-01-25T07:24:36.392Z,1010.83
2023-01-25T07:25:36.306Z,1010.83
2023-01-25T07:26:36.285Z,1010.84
2023-01-25T07:27:36.342Z,1010.82
2023-01-25T07:28:36.323Z,1010.84
2023-01-25T07:29:36.177Z,1010.81
2023-01-25T07:30:36.824Z,1010.83
2023-01-25T07:31:36.536Z,1010.82
2023-01-25T07:32:36.200Z,1010.81
2023-01-25T07:33:36.101Z,1010.78
2023-01-25T07:34:36.075Z,1010.83
2023-01-25T07:35:36.083Z,1010.82
2023-01-25T07:36:35.995Z,1010.84
2023-01-25T07:37:35.991Z,1010.88
2023-01-25T07:38:35.937Z,1010.84
2023-01-25T07:39:35.931Z,1010.81
2023-01-25T07:40:35.929Z,1010.81
2023-01-25T07:41:35.888Z,1010.78
2023-01-25T07:42:35.841Z,1010.80
2023-01-25T07:43:35.830Z,1010.78
2023-01-25T07:44:35.775Z,1010.79
2023-01-25T07:45:35.761Z,1010.79
2023-01-25T07:46:35.975Z,1010.80
2023-01-25T07:47:37.214Z,1010.84
2023-01-25T07:48:35.705Z,1010.77
2023-01-25T07:49:35.718Z,1010.80
2023-01-25T07:50:35.614Z,1010.79
2023-01-25T07:51:35.621Z,1010.82
2023-01-25T07:52:35.565Z,1010.82
2023-01-25T07:53:35.551Z,1010.82
2023-01-25T07:54:35.548Z,1010.80
2023-01-25T07:55:35.576Z,1010.85
2023-01-25T07:56:35.479Z,1010.83
2023-01-25T07:57:35.506Z,1010.81
2023-01-25T07:58:35.485Z,1010.86
2023-01-25T07:59:35.508Z,1010.85
2023-01-25T08:00:35.419Z,1010.88
2023-01-25T08:01:35.367Z,1010.89
2023-01-25T08:02:35.357Z,1010.87
2023-01-25T08:03:35.301Z,1010.92
2023-01-25T08:04:35.339Z,1010.88
2023-01-25T08:05:35.359Z,1010.93
2023-01-25T08:06:35.325Z,1010.91
2023-01-25T08:07:35.249Z,1010.87
2023-01-25T08:08:35.218Z,1010.84
2023-01-25T08:09:35.153Z,1010.81
2023-01-25T08:10:35.104Z,1010.79
2023-01-25T08:11:35.070Z,1010.80
2023-01-25T08:12:35.023Z,1010.81
2023-01-25T08:13:35.090Z,1010.78
2023-01-25T08:14:35.089Z,1010.73
2023-01-25T08:15:34.979Z,1010.75
2023-01-25T08:16:35.052Z,1010.71
2023-01-25T08:17:34.937Z,1010.76
2023-01-25T08:18:36.071Z,1010.72
2023-01-25T08:19:34.853Z,1010.74
2023-01-25T08:20:34.852Z,1010.72
2023-01-25T08:21:34.795Z,1010.71
2023-01-25T08:22:34.768Z,1010.71
2023-01-25T08:23:34.752Z,1010.70
2023-01-25T08:24:34.776Z,1010.71
2023-01-25T08:25:34.708Z,1010.75
2023-01-25T08:26:34.702Z,1010.68
2023-01-25T08:27:34.631Z,1010.70
2023-01-25T08:28:34.649Z,1010.73
2023-01-25T08:29:34.758Z,1010.73
2023-01-25T08:30:34.832Z,1010.75
2023-01-25T08:31:34.659Z,1010.71
2023-01-25T08:32:36.123Z,1010.74
2023-01-25T08:33:34.674Z,1010.69
2023-01-25T08:34:34.456Z,1010.68
2023-01-25T08:35:34.487Z,1010.67
2023-01-25T08:36:34.406Z,1010.66
2023-01-25T08:37:34.365Z,1010.68
2023-01-25T08:38:34.408Z,1010.70
2023-01-25T08:39:34.356Z,1010.63
2023-01-25T08:40:37.121Z,1010.62
2023-01-25T08:41:34.299Z,1010.60
2023-01-25T08:42:34.464Z,1010.64
2023-01-25T08:43:34.314Z,1010.64
2023-01-25T08:44:34.345Z,1010.61
2023-01-25T08:45:34.161Z,1010.64
2023-01-25T08:46:34.207Z,1010.66
2023-01-25T08:47:34.101Z,1010.59
2023-01-25T08:48:34.143Z,1010.64
2023-01-25T08:49:34.246Z,1010.58
2023-01-25T08:50:34.085Z,1010.58
2023-01-25T08:51:34.244Z,1010.59
2023-01-25T08:52:34.046Z,1010.59
2023-01-25T08:53:34.113Z,1010.61
2023-01-25T08:54:33.922Z,1010.59
2023-01-25T08:55:34.083Z,1010.61
2023-01-25T08:56:34.020Z,1010.62
2023-01-25T08:57:33.913Z,1010.62
2023-01-25T08:58:34.234Z,1010.62
2023-01-25T08:59:33.798Z,1010.55
2023-01-25T09:00:34.007Z,1010.58
2023-01-25T09:01:33.734Z,1010.56
2023-01-25T09:02:33.819Z,1010.56
2023-01-25T09:03:33.794Z,1010.51
2023-01-25T09:04:33.705Z,1010.52
2023-01-25T09:05:33.651Z,1010.54
2023-01-25T09:06:33.646Z,1010.50
2023-01-25T09:07:33.647Z,1010.47
2023-01-25T09:08:33.549Z,1010.49
2023-01-25T09:09:33.610Z,1010.47
2023-01-25T09:10:33.673Z,1010.38
2023-01-25T09:11:33.533Z,1010.41
2023-01-25T09:12:33.497Z,1010.36
2023-01-25T09:13:33.476Z,1010.36
2023-01-25T09:14:33.483Z,1010.39
2023-01-25T09:16:54.587Z,1010.43
2023-01-25T09:17:54.406Z,1010.40
2023-01-25T09:18:54.416Z,1010.42
2023-01-25T09:19:54.734Z,1010.44
2023-01-25T09:20:54.408Z,1010.43
2023-01-25T09:21:54.363Z,1010.46
2023-01-25T09:22:54.267Z,1010.44
2023-01-25T09:24:05.924Z,1010.47
2023-01-25T09:24:54.297Z,1010.42
2023-01-25T09:25:54.187Z,1010.44
2023-01-25T09:26:59.770Z,1010.47
2023-01-25T09:27:54.152Z,1010.47
2023-01-25T09:28:54.167Z,1010.50
2023-01-25T09:30:01.769Z,1010.48
2023-01-25T09:31:14.440Z,1010.44
2023-01-25T09:31:54.113Z,1010.45
2023-01-25T09:32:54.173Z,1010.42
2023-01-25T09:33:53.978Z,1010.45
2023-01-25T09:34:53.997Z,1010.44
2023-01-25T09:35:53.933Z,1010.47
2023-01-25T09:36:54.122Z,1010.46
2023-01-25T09:37:53.881Z,1010.47
2023-01-25T09:38:53.865Z,1010.48
2023-01-25T09:39:53.824Z,1010.49
2023-01-25T09:40:53.794Z,1010.50
2023-01-25T09:41:54.825Z,1010.53
2023-01-25T09:42:53.762Z,1010.49
2023-01-25T09:43:53.738Z,1010.49
2023-01-25T09:44:53.688Z,1010.45
2023-01-25T09:45:53.665Z,1010.47
2023-01-25T09:46:53.655Z,1010.46
2023-01-25T09:47:53.619Z,1010.45
2023-01-25T09:49:02.845Z,1010.46
2023-01-25T09:49:53.557Z,1010.42
2023-01-25T09:50:53.599Z,1010.49
2023-01-25T09:51:53.525Z,1010.47
2023-01-25T09:52:53.477Z,1010.42
2023-01-25T09:53:53.457Z,1010.38
2023-01-25T09:54:53.424Z,1010.39
2023-01-25T09:55:53.425Z,1010.34
2023-01-25T09:56:53.370Z,1010.38
2023-01-25T09:57:53.350Z,1010.37
2023-01-25T09:58:53.318Z,1010.35
2023-01-25T09:59:53.300Z,1010.33
2023-01-25T10:00:53.269Z,1010.32
2023-01-25T10:01:53.280Z,1010.32
2023-01-25T10:02:53.278Z,1010.35
2023-01-25T10:03:53.185Z,1010.36
2023-01-25T10:04:53.159Z,1010.35
2023-01-25T10:05:53.139Z,1010.32
2023-01-25T10:07:00.046Z,1010.36
2023-01-25T10:07:53.116Z,1010.37
2023-01-25T10:08:53.066Z,1010.35
2023-01-25T10:09:53.061Z,1010.33
2023-01-25T10:10:53.008Z,1010.30
2023-01-25T10:11:52.968Z,1010.34
2023-01-25T10:12:52.958Z,1010.28
2023-01-25T10:13:52.926Z,1010.31
2023-01-25T10:14:52.941Z,1010.30
2023-01-25T10:15:52.901Z,1010.33
2023-01-25T10:16:52.911Z,1010.30
2023-01-25T10:17:52.815Z,1010.32
2023-01-25T10:18:52.815Z,1010.30
2023-01-25T10:19:52.778Z,1010.27
2023-01-25T10:20:52.738Z,1010.31
2023-01-25T10:21:52.717Z,1010.29
2023-01-25T10:22:52.685Z,1010.28
2023-01-25T10:23:52.711Z,1010.25
2023-01-25T10:24:52.663Z,1010.21
2023-01-25T10:25:52.611Z,1010.23
2023-01-25T10:26:52.578Z,1010.23
2023-01-25T10:27:52.550Z,1010.21
2023-01-25T10:28:52.538Z,1010.16
2023-01-25T10:29:52.510Z,1010.12
2023-01-25T10:30:52.588Z,1010.11
2023-01-25T10:31:52.581Z,1010.13
2023-01-25T10:32:56.206Z,1010.14
2023-01-25T10:33:52.412Z,1010.13
2023-01-25T10:34:57.289Z,1010.08
2023-01-25T10:35:52.375Z,1010.05
2023-01-25T10:36:52.323Z,1010.04
2023-01-25T10:37:52.308Z,1010.05
2023-01-25T10:38:52.263Z,1009.99
2023-01-25T10:39:52.234Z,1010.00
2023-01-25T10:40:52.214Z,1010.00
2023-01-25T10:41:52.190Z,1009.97
2023-01-25T10:42:52.159Z,1009.87
2023-01-25T10:43:52.127Z,1009.93
2023-01-25T10:44:52.109Z,1009.87
2023-01-25T10:45:52.097Z,1009.87
2023-01-25T10:46:52.173Z,1009.87
2023-01-25T10:47:52.051Z,1009.82
2023-01-25T10:48:52.002Z,1009.77
2023-01-25T10:49:51.972Z,1009.76
2023-01-25T10:50:51.990Z,1009.74
2023-01-25T10:51:51.920Z,1009.72
2023-01-25T10:52:51.920Z,1009.72
2023-01-25T10:53:51.873Z,1009.66
2023-01-25T10:54:51.840Z,1009.69
2023-01-25T10:55:51.810Z,1009.66
2023-01-25T10:56:51.796Z,1009.65
2023-01-25T10:57:51.770Z,1009.64
2023-01-25T10:58:51.747Z,1009.63
2023-01-25T10:59:51.718Z,1009.57
2023-01-25T11:00:51.729Z,1009.54
2023-01-25T11:01:51.832Z,1009.55
2023-01-25T11:02:51.650Z,1009.53
2023-01-25T11:03:51.612Z,1009.49
2023-01-25T11:04:51.585Z,1009.52
2023-01-25T11:05:51.559Z,1009.48
2023-01-25T11:06:51.610Z,1009.44
2023-01-25T11:07:51.522Z,1009.46
2023-01-25T11:08:51.477Z,1009.44
2023-01-25T11:09:51.456Z,1009.45
2023-01-25T11:10:51.436Z,1009.40
2023-01-25T11:11:51.402Z,1009.44
2023-01-25T11:12:51.373Z,1009.44
2023-01-25T11:13:51.337Z,1009.43
2023-01-25T11:14:51.326Z,1009.40
2023-01-25T11:15:51.335Z,1009.37
2023-01-25T11:16:51.430Z,1009.34
2023-01-25T11:17:51.251Z,1009.34
2023-01-25T11:18:51.231Z,1009.31
2023-01-25T11:19:51.190Z,1009.33
2023-01-25T11:20:51.158Z,1009.27
2023-01-25T11:21:51.139Z,1009.24
2023-01-25T11:22:51.117Z,1009.24
2023-01-25T11:23:51.128Z,1009.23
2023-01-25T11:24:51.075Z,1009.17
2023-01-25T11:25:51.022Z,1009.16
2023-01-25T11:26:51.003Z,1009.17
2023-01-25T11:27:50.970Z,1009.12
2023-01-25T11:28:50.954Z,1009.10
2023-01-25T11:29:50.939Z,1009.15
2023-01-25T11:30:51.008Z,1009.14
2023-01-25T11:31:50.991Z,1009.11
2023-01-25T11:32:50.844Z,1009.09
2023-01-25T11:33:50.828Z,1009.06
2023-01-25T11:34:50.823Z,1009.08
2023-01-25T11:35:50.815Z,1009.07
2023-01-25T11:36:50.732Z,1009.07
2023-01-25T11:37:50.710Z,1009.04
2023-01-25T11:38:50.690Z,1009.07
2023-01-25T11:39:50.667Z,1009.05
2023-01-25T11:40:50.649Z,1009.01
2023-01-25T11:41:50.657Z,1009.01
2023-01-25T11:42:50.578Z,1008.97
2023-01-25T11:43:50.545Z,1008.99
2023-01-25T11:44:50.538Z,1008.97
2023-01-25T11:45:50.534Z,1008.92
2023-01-25T11:46:50.552Z,1008.93
2023-01-25T11:47:50.448Z,1008.89
2023-01-25T11:48:50.420Z,1008.84
2023-01-25T11:49:50.398Z,1008.85
2023-01-25T11:50:50.400Z,1008.83
2023-01-25T11:51:51.841Z,1008.79
2023-01-25T11:52:50.351Z,1008.82
2023-01-25T11:53:50.294Z,1008.76
2023-01-25T11:54:50.264Z,1008.77
2023-01-25T11:55:50.236Z,1008.73
2023-01-25T11:56:50.211Z,1008.69
2023-01-25T11:57:50.182Z,1008.67
2023-01-25T11:58:50.185Z,1008.66
2023-01-25T11:59:50.137Z,1008.65
2023-01-25T12:00:50.102Z,1008.65
2023-01-25T12:01:50.079Z,1008.62
2023-01-25T12:02:50.073Z,1008.68
2023-01-25T12:03:50.136Z,1008.64
2023-01-25T12:04:50.032Z,1008.60
2023-01-25T12:05:49.979Z,1008.60
2023-01-25T12:06:49.947Z,1008.59
2023-01-25T12:07:49.921Z,1008.56
2023-01-25T12:08:49.893Z,1008.54
2023-01-25T12:09:49.882Z,1008.52
2023-01-25T12:10:49.855Z,1008.47
2023-01-25T12:11:49.810Z,1008.48
2023-01-25T12:12:49.794Z,1008.45
2023-01-25T12:13:49.769Z,1008.42
2023-01-25T12:14:49.740Z,1008.41
2023-01-25T12:15:49.803Z,1008.34
2023-01-25T12:16:49.686Z,1008.32
2023-01-25T12:17:49.662Z,1008.28
2023-01-25T12:18:49.655Z,1008.31
2023-01-25T12:19:49.666Z,1008.32
2023-01-25T12:20:49.584Z,1008.27
2023-01-25T12:21:49.564Z,1008.24
2023-01-25T12:22:49.544Z,1008.19